createdAt,value
2023-02-13T00:01:05.595Z,103644.06
2023-02-13T00:03:33.344Z,103643.09
2023-02-13T00:06:01.079Z,103649.44
2023-02-13T00:08:28.822Z,103638.84
2023-02-13T00:10:58.221Z,103645.06
2023-02-13T00:13:26.121Z,103646.06
2023-02-13T00:15:57.682Z,103640.69
2023-02-13T00:18:25.472Z,103643.38
2023-02-13T00:21:00.988Z,103637.16
2023-02-13T00:23:31.127Z,103638.00
2023-02-13T00:26:00.638Z,103631.78
2023-02-13T00:28:29.029Z,103627.28
2023-02-13T00:31:04.190Z,103628.25
2023-02-13T00:33:31.980Z,103629.25
2023-02-13T00:36:07.922Z,103630.25
2023-02-13T00:38:35.915Z,103627.56
2023-02-13T00:41:05.801Z,103628.00
2023-02-13T00:43:33.665Z,103630.38
2023-02-13T00:46:02.228Z,103624.31
2023-02-13T00:48:31.594Z,103624.31
2023-02-13T00:50:59.757Z,103625.31
2023-02-13T00:53:28.567Z,103624.47
2023-02-13T00:55:56.411Z,103626.28
2023-02-13T00:58:26.170Z,103616.56
2023-02-13T01:00:54.870Z,103614.88
2023-02-13T01:03:24.003Z,103611.63
2023-02-13T01:05:52.524Z,103619.38
2023-02-13T01:08:21.683Z,103620.22
2023-02-13T01:10:49.865Z,103621.38
2023-02-13T01:13:19.482Z,103622.34
2023-02-13T01:15:49.887Z,103622.63
2023-02-13T01:18:19.596Z,103619.97
2023-02-13T01:20:56.464Z,103618.41
2023-02-13T01:23:24.358Z,103624.75
2023-02-13T01:25:52.160Z,103616.84
2023-02-13T01:28:19.925Z,103627.72
2023-02-13T01:30:54.155Z,103615.31
2023-02-13T01:33:22.372Z,103620.66
2023-02-13T01:35:50.146Z,103619.13
2023-02-13T01:38:17.937Z,103617.44
2023-02-13T01:40:47.550Z,103614.03
2023-02-13T01:43:15.757Z,103614.03
2023-02-13T01:45:45.936Z,103616.72
2023-02-13T01:48:18.369Z,103613.19
2023-02-13T01:50:50.396Z,103611.34
2023-02-13T01:53:22.970Z,103610.66
2023-02-13T01:55:56.340Z,103602.75
2023-02-13T01:58:30.005Z,103601.91
2023-02-13T02:00:59.472Z,103602.88
2023-02-13T02:03:32.740Z,103604.72
2023-02-13T02:06:02.962Z,103604.88
2023-02-13T02:08:31.996Z,103601.34
2023-02-13T02:11:07.965Z,103603.03
2023-02-13T02:13:35.701Z,103605.03
2023-02-13T02:16:03.744Z,103596.72
2023-02-13T02:18:32.834Z,103598.13
2023-02-13T02:21:40.640Z,103600.94
2023-02-13T02:24:33.654Z,103596.56
2023-02-13T02:27:28.410Z,103593.91
2023-02-13T02:30:24.617Z,103600.25
2023-02-13T02:33:09.679Z,103603.91
2023-02-13T02:35:47.588Z,103596.84
2023-02-13T02:38:36.181Z,103605.88
2023-02-13T02:41:11.320Z,103599.81
2023-02-13T02:43:54.829Z,103602.50
2023-02-13T02:46:28.764Z,103601.66
2023-02-13T02:49:23.151Z,103600.81
2023-02-13T02:52:02.997Z,103599.25
2023-02-13T02:54:56.415Z,103589.53
2023-02-13T02:57:48.228Z,103595.03
2023-02-13T03:00:35.252Z,103593.34
2023-02-13T03:03:21.121Z,103587.13
2023-02-13T03:06:10.802Z,103592.63
2023-02-13T03:08:56.726Z,103586.84
2023-02-13T03:11:38.383Z,103589.38
2023-02-13T03:14:09.559Z,103593.75
2023-02-13T03:16:54.603Z,103589.53
2023-02-13T03:20:04.698Z,103592.19
2023-02-13T03:22:43.466Z,103592.34
2023-02-13T03:25:19.079Z,103591.50
2023-02-13T03:28:09.381Z,103587.25
2023-02-13T03:30:48.205Z,103593.47
2023-02-13T03:33:29.083Z,103577.78
2023-02-13T03:36:23.293Z,103573.41
2023-02-13T03:38:59.354Z,103586.56
2023-02-13T03:41:31.463Z,103593.84
2023-02-13T03:44:12.184Z,103590.47
2023-02-13T03:46:43.150Z,103588.91
2023-02-13T03:49:35.182Z,103594.28
2023-02-13T03:52:07.458Z,103597.78
2023-02-13T03:55:01.248Z,103597.94
2023-02-13T03:57:50.588Z,103605.97
2023-02-13T04:00:20.325Z,103599.06
2023-02-13T04:02:55.965Z,103606.25
2023-02-13T04:05:27.258Z,103603.84
2023-02-13T04:07:55.087Z,103607.38
2023-02-13T04:10:28.716Z,103612.72
2023-02-13T04:13:04.233Z,103616.41
2023-02-13T04:15:37.697Z,103611.44
2023-02-13T04:18:11.158Z,103610.47
2023-02-13T04:20:40.062Z,103604.41
2023-02-13T04:23:09.469Z,103603.56
2023-02-13T04:25:41.213Z,103601.00
2023-02-13T04:28:09.127Z,103586.91
2023-02-13T04:30:36.953Z,103594.94
2023-02-13T04:33:04.932Z,103591.56
2023-02-13T04:35:32.798Z,103593.38
2023-02-13T04:38:00.565Z,103591.84
2023-02-13T04:40:28.284Z,103598.88
2023-02-13T04:42:57.600Z,103582.66
2023-02-13T04:45:25.320Z,103593.81
2023-02-13T04:47:53.942Z,103592.25
2023-02-13T04:50:22.558Z,103591.53
2023-02-13T04:52:55.039Z,103589.84
2023-02-13T04:55:23.165Z,103581.81
2023-02-13T04:57:53.676Z,103582.94
2023-02-13T05:00:24.062Z,103585.63
2023-02-13T05:02:52.407Z,103579.69
2023-02-13T05:05:20.622Z,103585.88
2023-02-13T05:07:48.484Z,103579.69
2023-02-13T05:10:16.311Z,103579.81
2023-02-13T05:12:44.064Z,103580.81
2023-02-13T05:15:12.203Z,103580.09
2023-02-13T05:17:41.278Z,103574.88
2023-02-13T05:20:09.620Z,103583.88
2023-02-13T05:22:54.683Z,103583.19
2023-02-13T05:25:22.767Z,103585.00
2023-02-13T05:27:50.499Z,103584.31
2023-02-13T05:30:18.399Z,103587.97
2023-02-13T05:32:47.440Z,103584.44
2023-02-13T05:35:15.192Z,103581.03
2023-02-13T05:37:42.905Z,103584.56
2023-02-13T05:40:11.755Z,103584.72
2023-02-13T05:42:39.469Z,103591.91
2023-02-13T05:45:08.033Z,103588.50
2023-02-13T05:47:35.731Z,103596.53
2023-02-13T05:50:05.134Z,103596.66
2023-02-13T05:52:32.839Z,103603.84
2023-02-13T05:55:00.569Z,103597.66
2023-02-13T05:57:28.283Z,103593.41
2023-02-13T05:59:55.984Z,103590.75
2023-02-13T06:02:24.900Z,103589.03
2023-02-13T06:04:52.696Z,103583.56
2023-02-13T06:07:21.792Z,103588.09
2023-02-13T06:09:49.499Z,103587.84
2023-02-13T06:12:17.183Z,103581.97
2023-02-13T06:14:44.915Z,103581.00
2023-02-13T06:17:12.599Z,103585.25
2023-02-13T06:19:40.332Z,103587.25
2023-02-13T06:22:08.089Z,103586.84
2023-02-13T06:24:37.188Z,103578.78
2023-02-13T06:27:05.005Z,103580.34
2023-02-13T06:29:33.044Z,103585.13
2023-02-13T06:32:00.817Z,103583.41
2023-02-13T06:34:28.570Z,103590.66
2023-02-13T06:36:56.246Z,103589.81
2023-02-13T06:39:23.967Z,103593.47
2023-02-13T06:41:53.031Z,103596.25
2023-02-13T06:44:20.749Z,103597.06
2023-02-13T06:46:48.427Z,103595.09
2023-02-13T06:49:16.188Z,103594.66
2023-02-13T06:51:43.941Z,103586.31
2023-02-13T06:54:11.673Z,103592.09
2023-02-13T06:56:39.404Z,103600.41
2023-02-13T06:59:08.660Z,103599.81
2023-02-13T07:01:36.428Z,103605.44
2023-02-13T07:04:04.172Z,103599.50
2023-02-13T07:06:33.477Z,103616.69
2023-02-13T07:09:02.176Z,103610.78
2023-02-13T07:11:29.931Z,103621.88
2023-02-13T07:13:57.648Z,103612.16
2023-02-13T07:16:26.764Z,103614.13
2023-02-13T07:18:54.472Z,103620.53
2023-02-13T07:21:22.229Z,103619.84
2023-02-13T07:23:49.979Z,103618.00
2023-02-13T07:26:17.758Z,103613.63
2023-02-13T07:28:45.934Z,103607.69
2023-02-13T07:31:13.779Z,103616.44
2023-02-13T07:33:42.967Z,103617.41
2023-02-13T07:36:10.828Z,103610.38
2023-02-13T07:38:38.585Z,103606.13
2023-02-13T07:41:06.423Z,103613.19
2023-02-13T07:43:34.410Z,103614.28
2023-02-13T07:46:03.479Z,103607.25
2023-02-13T07:48:31.731Z,103611.75
2023-02-13T07:51:04.077Z,103607.25
2023-02-13T07:53:31.831Z,103610.06
2023-02-13T07:55:59.766Z,103607.53
2023-02-13T07:58:27.701Z,103620.91
2023-02-13T08:00:55.492Z,103622.72
2023-02-13T08:03:23.220Z,103629.91
2023-02-13T08:05:50.979Z,103623.56
2023-02-13T08:08:20.063Z,103622.00
2023-02-13T08:11:05.279Z,103615.94
2023-02-13T08:13:33.656Z,103627.63
2023-02-13T08:16:01.497Z,103629.44
2023-02-13T08:18:29.310Z,103625.94
2023-02-13T08:20:57.111Z,103631.28
2023-02-13T08:23:26.857Z,103628.72
2023-02-13T08:25:55.824Z,103640.28
2023-02-13T08:28:23.825Z,103642.97
2023-02-13T08:30:51.579Z,103646.63
2023-02-13T08:33:19.364Z,103653.66
2023-02-13T08:35:47.122Z,103649.16
2023-02-13T08:38:14.824Z,103649.16
2023-02-13T08:40:43.982Z,103637.41
2023-02-13T08:43:11.674Z,103651.84
2023-02-13T08:45:39.445Z,103652.81
2023-02-13T08:48:07.571Z,103652.69
2023-02-13T08:50:37.007Z,103656.25
2023-02-13T08:53:05.396Z,103665.63
2023-02-13T08:55:33.147Z,103661.63
2023-02-13T08:58:02.927Z,103657.59
2023-02-13T09:00:31.204Z,103658.78
2023-02-13T09:03:02.410Z,103657.16
2023-02-13T09:05:31.701Z,103653.53
2023-02-13T09:08:01.276Z,103651.72
2023-02-13T09:10:29.008Z,103663.78
2023-02-13T09:12:56.895Z,103653.06
2023-02-13T09:15:25.973Z,103652.03
2023-02-13T09:17:53.785Z,103658.09
2023-02-13T09:20:21.578Z,103658.75
2023-02-13T09:22:49.738Z,103652.38
2023-02-13T09:25:17.628Z,103655.78
2023-02-13T09:27:45.861Z,103657.75
2023-02-13T09:30:22.991Z,103661.41
2023-02-13T09:32:53.881Z,103660.81
2023-02-13T09:35:23.333Z,103659.25
2023-02-13T09:37:51.091Z,103649.53
2023-02-13T09:40:22.438Z,103655.16
2023-02-13T09:42:51.013Z,103656.00
2023-02-13T09:45:22.424Z,103649.81
2023-02-13T09:47:53.238Z,103658.00
2023-02-13T09:50:25.179Z,103659.34
2023-02-13T09:52:54.909Z,103657.84
2023-02-13T09:55:25.422Z,103647.44
2023-02-13T09:57:59.617Z,103657.94
2023-02-13T10:00:33.810Z,103650.75
2023-02-13T10:03:20.219Z,103653.25
2023-02-13T10:05:57.874Z,103649.47
2023-02-13T10:08:43.486Z,103656.09
2023-02-13T10:11:29.238Z,103665.53
2023-02-13T10:14:05.597Z,103667.81
2023-02-13T10:16:38.152Z,103663.03
2023-02-13T10:19:17.888Z,103658.22
2023-02-13T10:21:53.058Z,103657.53
2023-02-13T10:24:31.120Z,103654.25
2023-02-13T10:27:01.994Z,103652.69
2023-02-13T10:29:57.284Z,103648.44
2023-02-13T10:32:35.801Z,103655.63
2023-02-13T10:35:17.638Z,103647.00
2023-02-13T10:37:50.884Z,103646.03
2023-02-13T10:40:19.767Z,103646.88
2023-02-13T10:42:54.545Z,103636.75
2023-02-13T10:45:41.355Z,103643.66
2023-02-13T10:48:25.412Z,103643.53
2023-02-13T10:51:05.744Z,103641.28
2023-02-13T10:53:50.072Z,103639.88
2023-02-13T10:56:26.543Z,103639.88
2023-02-13T10:59:16.606Z,103632.81
2023-02-13T11:01:51.687Z,103630.13
2023-02-13T11:04:21.148Z,103626.31
2023-02-13T11:06:57.033Z,103631.97
2023-02-13T11:09:26.266Z,103631.97
2023-02-13T11:11:55.178Z,103626.59
2023-02-13T11:14:24.785Z,103624.91
2023-02-13T11:16:56.994Z,103619.53
2023-02-13T11:19:30.171Z,103615.03
2023-02-13T11:22:03.217Z,103610.50
2023-02-13T11:24:32.341Z,103611.22
2023-02-13T11:27:04.592Z,103605.84
2023-02-13T11:29:34.807Z,103608.38
2023-02-13T11:32:20.082Z,103605.56
2023-02-13T11:34:50.595Z,103594.69
2023-02-13T11:37:23.344Z,103596.38
2023-02-13T11:39:52.657Z,103593.72
2023-02-13T11:42:28.878Z,103588.19
2023-02-13T11:45:01.227Z,103588.06
2023-02-13T11:47:40.658Z,103585.22
2023-02-13T11:50:22.411Z,103582.25
2023-02-13T11:53:00.075Z,103587.78
2023-02-13T11:55:31.996Z,103577.59
2023-02-13T11:58:01.811Z,103573.66
2023-02-13T12:00:39.961Z,103575.19
2023-02-13T12:03:27.178Z,103575.59
2023-02-13T12:06:04.180Z,103571.78
2023-02-13T12:08:37.017Z,103568.13
2023-02-13T12:11:17.972Z,103561.63
2023-02-13T12:13:46.836Z,103561.47
2023-02-13T12:16:31.205Z,103553.97
2023-02-13T12:19:04.559Z,103555.50
2023-02-13T12:21:48.267Z,103555.22
2023-02-13T12:24:30.396Z,103555.06
2023-02-13T12:27:07.112Z,103553.94
2023-02-13T12:30:00.531Z,103549.13
2023-02-13T12:32:39.671Z,103542.47
2023-02-13T12:35:36.567Z,103548.69
2023-02-13T12:38:12.985Z,103542.03
2023-02-13T12:41:04.416Z,103534.69
2023-02-13T12:44:00.639Z,103540.75
2023-02-13T12:46:34.460Z,103528.03
2023-02-13T12:49:16.477Z,103520.13
2023-02-13T12:51:51.402Z,103529.97
2023-02-13T12:54:41.160Z,103519.91
2023-02-13T12:57:22.590Z,103517.38
2023-02-13T13:00:07.154Z,103520.47
2023-02-13T13:03:00.493Z,103507.50
2023-02-13T13:05:40.865Z,103515.50
2023-02-13T13:08:23.904Z,103512.50
2023-02-13T13:11:17.081Z,103505.84
2023-02-13T13:14:00.756Z,103506.38
2023-02-13T13:16:42.890Z,103498.19
2023-02-13T13:19:19.777Z,103503.41
2023-02-13T13:21:53.504Z,103501.56
2023-02-13T13:24:35.514Z,103508.47
2023-02-13T13:27:04.328Z,103502.09
2023-02-13T13:29:41.072Z,103496.88
2023-02-13T13:32:12.370Z,103497.56
2023-02-13T13:34:40.744Z,103489.22
2023-02-13T13:37:15.668Z,103483.53
2023-02-13T13:39:52.539Z,103476.84
2023-02-13T13:42:26.898Z,103475.56
2023-02-13T13:45:10.830Z,103478.94
2023-02-13T13:47:52.425Z,103471.41
2023-02-13T13:50:23.502Z,103462.88
2023-02-13T13:53:11.603Z,103464.56
2023-02-13T13:56:06.660Z,103466.25
2023-02-13T13:58:43.583Z,103453.69
2023-02-13T14:01:22.349Z,103456.91
2023-02-13T14:03:51.532Z,103462.97
2023-02-13T14:06:21.226Z,103459.28
2023-02-13T14:09:08.547Z,103465.34
2023-02-13T14:11:37.603Z,103464.19
2023-02-13T14:14:56.062Z,103461.34
2023-02-13T14:17:53.206Z,103458.53
2023-02-13T14:20:35.392Z,103449.47
2023-02-13T14:23:27.927Z,103447.47
2023-02-13T14:26:31.569Z,103450.00
2023-02-13T14:29:28.220Z,103439.94
2023-02-13T14:32:15.839Z,103449.69
2023-02-13T14:34:54.060Z,103441.63
2023-02-13T14:37:30.203Z,103443.31
2023-02-13T14:40:36.956Z,103447.53
2023-02-13T14:43:29.958Z,103447.53
2023-02-13T14:46:00.051Z,103440.31
2023-02-13T14:48:38.522Z,103445.38
2023-02-13T14:51:15.477Z,103444.38
2023-02-13T14:53:51.382Z,103446.75
2023-02-13T14:56:22.547Z,103432.31
2023-02-13T14:58:55.252Z,103437.34
2023-02-13T15:01:31.316Z,103425.41
2023-02-13T15:04:05.655Z,103430.81
2023-02-13T15:06:39.500Z,103427.31
2023-02-13T15:09:20.518Z,103427.28
2023-02-13T15:11:48.300Z,103428.19
2023-02-13T15:14:25.664Z,103432.50
2023-02-13T15:17:00.617Z,103432.91
2023-02-13T15:19:28.476Z,103423.88
2023-02-13T15:22:00.378Z,103412.47
2023-02-13T15:24:31.937Z,103422.25
2023-02-13T15:27:03.091Z,103412.69
2023-02-13T15:29:44.280Z,103408.50
2023-02-13T15:32:21.208Z,103412.88
2023-02-13T15:34:49.973Z,103406.13
2023-02-13T15:37:24.609Z,103410.47
2023-02-13T15:39:52.353Z,103410.25
2023-02-13T15:42:20.229Z,103406.03
2023-02-13T15:44:51.002Z,103408.38
2023-02-13T15:47:24.316Z,103402.97
2023-02-13T15:49:52.504Z,103411.22
2023-02-13T15:52:25.875Z,103410.00
2023-02-13T15:54:56.079Z,103407.13
2023-02-13T15:57:26.798Z,103407.47
2023-02-13T15:59:56.647Z,103397.84
2023-02-13T16:02:29.523Z,103400.03
2023-02-13T16:04:57.724Z,103408.44
2023-02-13T16:07:26.852Z,103410.44
2023-02-13T16:10:17.931Z,103411.78
2023-02-13T16:12:49.749Z,103404.19
2023-02-13T16:15:20.985Z,103405.03
2023-02-13T16:17:49.721Z,103403.50
2023-02-13T16:20:21.676Z,103405.50
2023-02-13T16:22:53.885Z,103404.81
2023-02-13T16:25:25.843Z,103401.47
2023-02-13T16:27:56.591Z,103406.00
2023-02-13T16:30:30.757Z,103397.25
2023-02-13T16:33:13.064Z,103406.16
2023-02-13T16:35:43.946Z,103407.16
2023-02-13T16:38:35.466Z,103406.47
2023-02-13T16:41:05.890Z,103407.47
2023-02-13T16:43:52.568Z,103408.47
2023-02-13T16:46:35.005Z,103407.81
2023-02-13T16:49:24.691Z,103414.19
2023-02-13T16:51:57.753Z,103411.66
2023-02-13T16:54:31.637Z,103418.19
2023-02-13T16:57:02.636Z,103417.34
2023-02-13T16:59:49.558Z,103420.88
2023-02-13T17:02:23.114Z,103415.66
2023-02-13T17:04:53.818Z,103414.38
2023-02-13T17:07:25.035Z,103419.16
2023-02-13T17:10:00.783Z,103423.44
2023-02-13T17:12:30.784Z,103419.81
2023-02-13T17:14:59.819Z,103414.47
2023-02-13T17:17:30.745Z,103411.97
2023-02-13T17:19:58.954Z,103423.63
2023-02-13T17:22:33.128Z,103415.22
2023-02-13T17:25:04.850Z,103421.47
2023-02-13T17:27:32.639Z,103420.28
2023-02-13T17:30:00.445Z,103420.41
2023-02-13T17:32:29.328Z,103419.19
2023-02-13T17:34:57.241Z,103415.97
2023-02-13T17:37:26.485Z,103416.28
2023-02-13T17:39:54.835Z,103420.66
2023-02-13T17:42:26.579Z,103422.47
2023-02-13T17:44:55.436Z,103422.97
2023-02-13T17:47:24.300Z,103420.25
2023-02-13T17:49:55.127Z,103429.47
2023-02-13T17:52:27.906Z,103429.28
2023-02-13T17:54:55.698Z,103432.28
2023-02-13T17:57:25.060Z,103433.63
2023-02-13T17:59:52.843Z,103429.56
2023-02-13T18:02:22.479Z,103430.88
2023-02-13T18:04:51.000Z,103429.03
2023-02-13T18:07:21.199Z,103425.06
2023-02-13T18:09:48.985Z,103420.75
2023-02-13T18:12:19.180Z,103419.81
2023-02-13T18:14:48.510Z,103421.69
2023-02-13T18:17:17.419Z,103422.56
2023-02-13T18:19:45.380Z,103419.38
2023-02-13T18:22:13.753Z,103422.56
2023-02-13T18:24:42.949Z,103421.88
2023-02-13T18:27:12.422Z,103410.75
2023-02-13T18:29:40.426Z,103426.03
2023-02-13T18:32:10.889Z,103418.25
2023-02-13T18:34:39.825Z,103419.91
2023-02-13T18:37:09.430Z,103420.41
2023-02-13T18:39:37.222Z,103421.88
2023-02-13T18:42:05.430Z,103424.06
2023-02-13T18:44:33.423Z,103422.00
2023-02-13T18:47:01.454Z,103414.44
2023-02-13T18:49:30.542Z,103413.06
2023-02-13T18:51:59.173Z,103411.53
2023-02-13T18:54:26.917Z,103408.31
2023-02-13T18:56:54.702Z,103404.28
2023-02-13T18:59:23.052Z,103402.91
2023-02-13T19:01:51.230Z,103396.00
2023-02-13T19:04:19.095Z,103407.06
2023-02-13T19:06:48.217Z,103398.31
2023-02-13T19:09:15.930Z,103396.34
2023-02-13T19:11:44.640Z,103398.94
2023-02-13T19:14:14.302Z,103400.53
2023-02-13T19:16:42.533Z,103400.75
2023-02-13T19:19:10.282Z,103402.81
2023-02-13T19:21:39.879Z,103400.31
2023-02-13T19:24:11.918Z,103404.88
2023-02-13T19:26:39.646Z,103408.09
2023-02-13T19:29:07.359Z,103404.94
2023-02-13T19:31:35.516Z,103404.41
2023-02-13T19:34:05.595Z,103402.03
2023-02-13T19:36:33.559Z,103401.16
2023-02-13T19:39:03.364Z,103397.25
2023-02-13T19:41:33.020Z,103413.88
2023-02-13T19:44:01.168Z,103407.78
2023-02-13T19:46:30.456Z,103408.75
2023-02-13T19:48:58.992Z,103410.41
2023-02-13T19:51:29.407Z,103411.22
2023-02-13T19:53:58.117Z,103411.69
2023-02-13T19:56:27.270Z,103407.81
2023-02-13T19:58:56.750Z,103404.75
2023-02-13T20:01:27.503Z,103409.59
2023-02-13T20:03:55.547Z,103408.41
2023-02-13T20:06:25.601Z,103401.59
2023-02-13T20:08:53.842Z,103407.50
2023-02-13T20:11:23.060Z,103418.72
2023-02-13T20:13:55.476Z,103411.81
2023-02-13T20:16:24.979Z,103421.22
2023-02-13T20:18:53.215Z,103420.72
2023-02-13T20:21:21.377Z,103421.19
2023-02-13T20:23:51.447Z,103424.19
2023-02-13T20:26:19.732Z,103426.19
2023-02-13T20:28:48.236Z,103421.13
2023-02-13T20:31:17.771Z,103422.28
2023-02-13T20:33:48.133Z,103419.75
2023-02-13T20:36:18.275Z,103414.66
2023-02-13T20:38:46.054Z,103417.50
2023-02-13T20:41:15.950Z,103417.81
2023-02-13T20:43:44.340Z,103417.13
2023-02-13T20:46:13.398Z,103411.91
2023-02-13T20:48:41.572Z,103413.06
2023-02-13T20:51:13.459Z,103414.91
2023-02-13T20:53:42.231Z,103403.47
2023-02-13T20:56:12.094Z,103403.78
2023-02-13T20:58:41.010Z,103405.78
2023-02-13T21:01:13.312Z,103406.94
2023-02-13T21:03:41.600Z,103405.41
2023-02-13T21:06:11.929Z,103408.41
2023-02-13T21:08:39.740Z,103412.94
2023-02-13T21:11:08.948Z,103420.13
2023-02-13T21:13:37.111Z,103412.41
2023-02-13T21:16:07.702Z,103410.69
2023-02-13T21:18:35.492Z,103421.59
2023-02-13T21:21:03.517Z,103410.16
2023-02-13T21:23:33.310Z,103419.22
2023-02-13T21:26:03.122Z,103424.91
2023-02-13T21:28:30.980Z,103419.53
2023-02-13T21:30:59.063Z,103426.75
2023-02-13T21:33:26.907Z,103422.53
2023-02-13T21:36:01.224Z,103416.47
2023-02-13T21:38:29.042Z,103425.66
2023-02-13T21:41:05.336Z,103429.19
2023-02-13T21:43:37.467Z,103424.81
2023-02-13T21:46:09.472Z,103419.44
2023-02-13T21:48:37.251Z,103419.59
2023-02-13T21:51:08.358Z,103419.59
2023-02-13T21:53:36.334Z,103420.75
2023-02-13T21:56:06.515Z,103412.00
2023-02-13T21:58:34.374Z,103414.53
2023-02-13T22:01:02.525Z,103415.69
2023-02-13T22:03:30.527Z,103410.31
2023-02-13T22:05:58.245Z,103407.78
2023-02-13T22:08:25.978Z,103408.63
2023-02-13T22:10:54.820Z,103403.41
2023-02-13T22:13:24.297Z,103404.56
2023-02-13T22:16:00.000Z,103398.34
2023-02-13T22:18:27.817Z,103406.56
2023-02-13T22:20:55.992Z,103402.19
2023-02-13T22:23:23.853Z,103414.06
2023-02-13T22:25:52.020Z,103400.81
2023-02-13T22:28:19.735Z,103408.00
2023-02-13T22:30:48.924Z,103408.16
2023-02-13T22:33:16.785Z,103414.69
2023-02-13T22:35:44.654Z,103401.72
2023-02-13T22:38:12.372Z,103400.72
2023-02-13T22:40:40.351Z,103401.03
2023-02-13T22:43:08.420Z,103406.38
2023-02-13T22:45:36.954Z,103405.84
2023-02-13T22:48:07.339Z,103406.00
2023-02-13T22:50:36.223Z,103406.84
2023-02-13T22:53:03.992Z,103402.47
2023-02-13T22:55:33.481Z,103397.56
2023-02-13T22:58:01.222Z,103396.72
2023-02-13T23:00:28.934Z,103397.84
2023-02-13T23:02:56.665Z,103399.69
2023-02-13T23:05:25.750Z,103398.16
2023-02-13T23:07:53.498Z,103404.53
2023-02-13T23:10:21.596Z,103401.84
2023-02-13T23:12:49.907Z,103401.28
2023-02-13T23:15:17.620Z,103401.13
2023-02-13T23:18:02.738Z,103402.28
2023-02-13T23:20:31.942Z,103397.06
2023-02-13T23:22:59.700Z,103392.69
2023-02-13T23:25:27.431Z,103392.16
2023-02-13T23:27:56.745Z,103394.97
2023-02-13T23:30:25.499Z,103390.63
2023-02-13T23:32:53.231Z,103390.75
2023-02-13T23:35:21.527Z,103386.25
2023-02-13T23:37:50.661Z,103390.91
2023-02-13T23:40:19.166Z,103391.06
2023-02-13T23:42:47.069Z,103395.72
2023-02-13T23:45:14.838Z,103399.56
2023-02-13T23:47:42.512Z,103393.34
2023-02-13T23:50:10.923Z,103386.44
2023-02-13T23:52:38.662Z,103394.63
2023-02-13T23:55:08.324Z,103401.00
2023-02-13T23:57:36.369Z,103400.16
